sensor_id;sensor_type;location;lat;lon;timestamp;temperature;humidity
17918;DHT22;9084;50.956;3.106;2023-03-13T00:01:40;11.40;99.90
17918;DHT22;9084;50.956;3.106;2023-03-13T00:04:06;11.50;99.90
17918;DHT22;9084;50.956;3.106;2023-03-13T00:06:35;11.50;99.90
17918;DHT22;9084;50.956;3.106;2023-03-13T00:09:02;11.50;99.90
17918;DHT22;9084;50.956;3.106;2023-03-13T00:11:32;11.50;99.90
17918;DHT22;9084;50.956;3.106;2023-03-13T00:14:02;11.50;99.90
17918;DHT22;9084;50.956;3.106;2023-03-13T00:16:29;11.50;99.90
17918;DHT22;9084;50.956;3.106;2023-03-13T00:18:56;11.60;99.90
17918;DHT22;9084;50.956;3.106;2023-03-13T00:21:25;11.60;99.90
17918;DHT22;9084;50.956;3.106;2023-03-13T00:23:51;11.60;99.90
17918;DHT22;9084;50.956;3.106;2023-03-13T00:26:20;11.60;99.90
17918;DHT22;9084;50.956;3.106;2023-03-13T00:28:50;11.70;99.90
17918;DHT22;9084;50.956;3.106;2023-03-13T00:31:22;11.70;99.90
17918;DHT22;9084;50.956;3.106;2023-03-13T00:33:51;11.70;99.90
17918;DHT22;9084;50.956;3.106;2023-03-13T00:36:21;11.70;99.90
17918;DHT22;9084;50.956;3.106;2023-03-13T00:38:47;11.70;99.90
17918;DHT22;9084;50.956;3.106;2023-03-13T00:41:28;11.80;99.90
17918;DHT22;9084;50.956;3.106;2023-03-13T00:43:57;11.80;99.90
17918;DHT22;9084;50.956;3.106;2023-03-13T00:46:25;11.80;99.90
17918;DHT22;9084;50.956;3.106;2023-03-13T00:48:51;11.80;99.90
17918;DHT22;9084;50.956;3.106;2023-03-13T00:51:19;11.90;99.90
17918;DHT22;9084;50.956;3.106;2023-03-13T00:53:46;11.90;99.90
17918;DHT22;9084;50.956;3.106;2023-03-13T00:56:17;11.90;99.90
17918;DHT22;9084;50.956;3.106;2023-03-13T00:58:44;11.90;99.90
17918;DHT22;9084;50.956;3.106;2023-03-13T01:03:37;12.00;99.90
17918;DHT22;9084;50.956;3.106;2023-03-13T01:06:08;12.00;99.90
17918;DHT22;9084;50.956;3.106;2023-03-13T01:08:34;12.00;99.90
17918;DHT22;9084;50.956;3.106;2023-03-13T01:11:02;12.00;99.90
17918;DHT22;9084;50.956;3.106;2023-03-13T01:13:29;12.10;99.90
17918;DHT22;9084;50.956;3.106;2023-03-13T01:16:03;12.10;99.90
17918;DHT22;9084;50.956;3.106;2023-03-13T01:18:33;12.10;99.90
17918;DHT22;9084;50.956;3.106;2023-03-13T01:20:58;12.10;99.90
17918;DHT22;9084;50.956;3.106;2023-03-13T01:23:27;12.20;99.90
17918;DHT22;9084;50.956;3.106;2023-03-13T01:25:54;12.20;99.90
17918;DHT22;9084;50.956;3.106;2023-03-13T01:28:24;12.20;99.90
17918;DHT22;9084;50.956;3.106;2023-03-13T01:30:50;12.20;99.90
17918;DHT22;9084;50.956;3.106;2023-03-13T01:33:18;12.20;99.90
17918;DHT22;9084;50.956;3.106;2023-03-13T01:35:46;12.20;99.90
17918;DHT22;9084;50.956;3.106;2023-03-13T01:38:12;12.20;99.90
17918;DHT22;9084;50.956;3.106;2023-03-13T01:40:46;12.30;99.90
17918;DHT22;9084;50.956;3.106;2023-03-13T01:43:28;12.20;99.90
17918;DHT22;9084;50.956;3.106;2023-03-13T01:51:32;12.30;99.90
17918;DHT22;9084;50.956;3.106;2023-03-13T01:56:47;12.40;99.90
17918;DHT22;9084;50.956;3.106;2023-03-13T01:59:23;12.40;99.90
17918;DHT22;9084;50.956;3.106;2023-03-13T02:01:52;12.40;99.90
17918;DHT22;9084;50.956;3.106;2023-03-13T02:04:21;12.40;99.90
17918;DHT22;9084;50.956;3.106;2023-03-13T02:06:49;12.50;99.90
17918;DHT22;9084;50.956;3.106;2023-03-13T02:09:22;12.50;99.90
17918;DHT22;9084;50.956;3.106;2023-03-13T02:11:51;12.50;99.90
17918;DHT22;9084;50.956;3.106;2023-03-13T02:14:19;12.50;99.90
17918;DHT22;9084;50.956;3.106;2023-03-13T02:16:46;12.50;99.90
17918;DHT22;9084;50.956;3.106;2023-03-13T02:19:46;12.60;99.90
17918;DHT22;9084;50.956;3.106;2023-03-13T02:30:22;12.60;99.90
17918;DHT22;9084;50.956;3.106;2023-03-13T02:32:53;12.70;99.90
17918;DHT22;9084;50.956;3.106;2023-03-13T02:35:22;12.70;99.90
17918;DHT22;9084;50.956;3.106;2023-03-13T02:37:56;12.60;99.90
17918;DHT22;9084;50.956;3.106;2023-03-13T02:40:31;12.70;99.90
17918;DHT22;9084;50.956;3.106;2023-03-13T02:43:00;12.70;99.90
17918;DHT22;9084;50.956;3.106;2023-03-13T02:45:26;12.70;99.90
17918;DHT22;9084;50.956;3.106;2023-03-13T02:47:52;12.70;99.90
17918;DHT22;9084;50.956;3.106;2023-03-13T02:50:18;12.80;99.90
17918;DHT22;9084;50.956;3.106;2023-03-13T02:52:54;12.80;99.90
17918;DHT22;9084;50.956;3.106;2023-03-13T02:55:29;12.80;99.90
17918;DHT22;9084;50.956;3.106;2023-03-13T02:57:55;12.90;99.90
17918;DHT22;9084;50.956;3.106;2023-03-13T03:00:25;12.90;99.90
17918;DHT22;9084;50.956;3.106;2023-03-13T03:02:52;12.90;99.90
17918;DHT22;9084;50.956;3.106;2023-03-13T03:05:25;12.90;99.90
17918;DHT22;9084;50.956;3.106;2023-03-13T03:07:51;13.00;99.90
17918;DHT22;9084;50.956;3.106;2023-03-13T03:10:17;13.00;99.90
17918;DHT22;9084;50.956;3.106;2023-03-13T03:12:45;13.00;99.90
17918;DHT22;9084;50.956;3.106;2023-03-13T03:15:11;13.10;99.90
17918;DHT22;9084;50.956;3.106;2023-03-13T03:17:38;13.10;99.90
17918;DHT22;9084;50.956;3.106;2023-03-13T03:20:04;13.20;99.90
17918;DHT22;9084;50.956;3.106;2023-03-13T03:22:36;13.20;99.90
17918;DHT22;9084;50.956;3.106;2023-03-13T03:25:03;13.20;99.90
17918;DHT22;9084;50.956;3.106;2023-03-13T03:27:31;13.20;99.90
17918;DHT22;9084;50.956;3.106;2023-03-13T03:29:59;13.20;99.90
17918;DHT22;9084;50.956;3.106;2023-03-13T03:32:25;13.20;99.90
17918;DHT22;9084;50.956;3.106;2023-03-13T03:34:50;13.20;99.90
17918;DHT22;9084;50.956;3.106;2023-03-13T03:37:16;13.20;99.90
17918;DHT22;9084;50.956;3.106;2023-03-13T03:39:44;13.30;99.90
17918;DHT22;9084;50.956;3.106;2023-03-13T03:42:12;13.30;99.90
17918;DHT22;9084;50.956;3.106;2023-03-13T03:44:37;13.30;99.90
17918;DHT22;9084;50.956;3.106;2023-03-13T03:47:03;13.20;99.90
17918;DHT22;9084;50.956;3.106;2023-03-13T03:49:31;13.30;99.90
17918;DHT22;9084;50.956;3.106;2023-03-13T03:51:59;13.30;99.90
17918;DHT22;9084;50.956;3.106;2023-03-13T03:54:25;13.30;99.90
17918;DHT22;9084;50.956;3.106;2023-03-13T03:56:53;13.30;99.90
17918;DHT22;9084;50.956;3.106;2023-03-13T03:59:19;13.30;99.90
17918;DHT22;9084;50.956;3.106;2023-03-13T04:01:45;13.30;99.90
17918;DHT22;9084;50.956;3.106;2023-03-13T04:04:10;13.30;99.90
17918;DHT22;9084;50.956;3.106;2023-03-13T04:06:38;13.30;99.90
17918;DHT22;9084;50.956;3.106;2023-03-13T04:09:06;13.30;99.90
17918;DHT22;9084;50.956;3.106;2023-03-13T04:11:31;13.30;99.90
17918;DHT22;9084;50.956;3.106;2023-03-13T04:13:59;13.30;99.90
17918;DHT22;9084;50.956;3.106;2023-03-13T04:16:27;13.30;99.90
17918;DHT22;9084;50.956;3.106;2023-03-13T04:18:55;13.30;99.90
17918;DHT22;9084;50.956;3.106;2023-03-13T04:21:21;13.30;99.90
17918;DHT22;9084;50.956;3.106;2023-03-13T04:23:49;13.30;99.90
17918;DHT22;9084;50.956;3.106;2023-03-13T04:26:15;13.30;99.90
17918;DHT22;9084;50.956;3.106;2023-03-13T04:28:40;13.40;99.90
17918;DHT22;9084;50.956;3.106;2023-03-13T04:31:06;13.40;99.90
17918;DHT22;9084;50.956;3.106;2023-03-13T04:33:34;13.40;99.90
17918;DHT22;9084;50.956;3.106;2023-03-13T04:36:02;13.40;99.90
17918;DHT22;9084;50.956;3.106;2023-03-13T04:38:28;13.40;99.90
17918;DHT22;9084;50.956;3.106;2023-03-13T04:40:53;13.40;99.90
17918;DHT22;9084;50.956;3.106;2023-03-13T04:43:22;13.40;99.90
17918;DHT22;9084;50.956;3.106;2023-03-13T04:45:53;13.40;99.90
17918;DHT22;9084;50.956;3.106;2023-03-13T04:48:21;13.40;99.90
17918;DHT22;9084;50.956;3.106;2023-03-13T04:50:50;13.40;99.90
17918;DHT22;9084;50.956;3.106;2023-03-13T04:53:18;13.40;99.90
17918;DHT22;9084;50.956;3.106;2023-03-13T04:55:46;13.50;99.90
17918;DHT22;9084;50.956;3.106;2023-03-13T04:58:12;13.50;99.90
17918;DHT22;9084;50.956;3.106;2023-03-13T05:00:42;13.50;99.90
17918;DHT22;9084;50.956;3.106;2023-03-13T05:03:07;13.50;99.90
17918;DHT22;9084;50.956;3.106;2023-03-13T05:05:36;13.50;99.90
17918;DHT22;9084;50.956;3.106;2023-03-13T05:08:01;13.50;99.90
17918;DHT22;9084;50.956;3.106;2023-03-13T05:10:27;13.50;99.90
17918;DHT22;9084;50.956;3.106;2023-03-13T05:12:55;13.50;99.90
17918;DHT22;9084;50.956;3.106;2023-03-13T05:15:21;13.40;99.90
17918;DHT22;9084;50.956;3.106;2023-03-13T05:17:49;13.50;99.90
17918;DHT22;9084;50.956;3.106;2023-03-13T05:20:14;13.50;99.90
17918;DHT22;9084;50.956;3.106;2023-03-13T05:22:42;13.50;99.90
17918;DHT22;9084;50.956;3.106;2023-03-13T05:25:11;13.50;99.90
17918;DHT22;9084;50.956;3.106;2023-03-13T05:27:36;13.50;99.90
17918;DHT22;9084;50.956;3.106;2023-03-13T05:30:05;13.50;99.90
17918;DHT22;9084;50.956;3.106;2023-03-13T05:32:35;13.50;99.90
17918;DHT22;9084;50.956;3.106;2023-03-13T05:35:06;13.60;99.90
17918;DHT22;9084;50.956;3.106;2023-03-13T05:37:34;13.60;99.90
17918;DHT22;9084;50.956;3.106;2023-03-13T05:40:00;13.60;99.90
17918;DHT22;9084;50.956;3.106;2023-03-13T05:42:28;13.60;99.90
17918;DHT22;9084;50.956;3.106;2023-03-13T05:44:56;13.70;99.90
17918;DHT22;9084;50.956;3.106;2023-03-13T05:47:24;13.60;99.90
17918;DHT22;9084;50.956;3.106;2023-03-13T05:49:52;13.60;99.90
17918;DHT22;9084;50.956;3.106;2023-03-13T05:52:20;13.60;99.90
17918;DHT22;9084;50.956;3.106;2023-03-13T05:54:45;13.70;99.90
17918;DHT22;9084;50.956;3.106;2023-03-13T05:57:13;13.60;99.90
17918;DHT22;9084;50.956;3.106;2023-03-13T05:59:39;13.60;99.90
17918;DHT22;9084;50.956;3.106;2023-03-13T06:02:05;13.70;99.90
17918;DHT22;9084;50.956;3.106;2023-03-13T06:04:30;13.70;99.90
17918;DHT22;9084;50.956;3.106;2023-03-13T06:06:56;13.70;99.90
17918;DHT22;9084;50.956;3.106;2023-03-13T06:09:24;13.70;99.90
17918;DHT22;9084;50.956;3.106;2023-03-13T06:11:52;13.70;99.90
17918;DHT22;9084;50.956;3.106;2023-03-13T06:14:19;13.70;99.90
17918;DHT22;9084;50.956;3.106;2023-03-13T06:16:45;13.70;99.90
17918;DHT22;9084;50.956;3.106;2023-03-13T06:19:13;13.70;99.90
17918;DHT22;9084;50.956;3.106;2023-03-13T06:21:41;13.70;99.90
17918;DHT22;9084;50.956;3.106;2023-03-13T06:24:07;13.70;99.90
17918;DHT22;9084;50.956;3.106;2023-03-13T06:26:38;13.70;99.90
17918;DHT22;9084;50.956;3.106;2023-03-13T06:29:06;13.80;99.90
17918;DHT22;9084;50.956;3.106;2023-03-13T06:31:34;13.80;99.90
17918;DHT22;9084;50.956;3.106;2023-03-13T06:34:00;13.80;99.90
17918;DHT22;9084;50.956;3.106;2023-03-13T06:36:25;13.80;99.90
17918;DHT22;9084;50.956;3.106;2023-03-13T06:38:51;13.80;99.90
17918;DHT22;9084;50.956;3.106;2023-03-13T06:41:21;13.70;99.90
17918;DHT22;9084;50.956;3.106;2023-03-13T06:43:49;13.80;99.90
17918;DHT22;9084;50.956;3.106;2023-03-13T06:46:18;13.70;99.90
17918;DHT22;9084;50.956;3.106;2023-03-13T06:48:44;13.70;99.90
17918;DHT22;9084;50.956;3.106;2023-03-13T06:51:13;13.60;99.90
17918;DHT22;9084;50.956;3.106;2023-03-13T06:53:42;13.60;99.90
17918;DHT22;9084;50.956;3.106;2023-03-13T06:56:10;13.60;99.90
17918;DHT22;9084;50.956;3.106;2023-03-13T06:58:36;13.60;99.90
17918;DHT22;9084;50.956;3.106;2023-03-13T07:01:09;13.70;99.90
17918;DHT22;9084;50.956;3.106;2023-03-13T07:03:35;13.70;99.90
17918;DHT22;9084;50.956;3.106;2023-03-13T07:06:01;13.60;99.90
17918;DHT22;9084;50.956;3.106;2023-03-13T07:08:32;13.50;99.90
17918;DHT22;9084;50.956;3.106;2023-03-13T07:11:03;13.50;99.90
17918;DHT22;9084;50.956;3.106;2023-03-13T07:13:32;13.50;99.90
17918;DHT22;9084;50.956;3.106;2023-03-13T07:16:01;13.50;99.90
17918;DHT22;9084;50.956;3.106;2023-03-13T07:18:29;13.60;99.90
17918;DHT22;9084;50.956;3.106;2023-03-13T07:20:57;13.60;99.90
17918;DHT22;9084;50.956;3.106;2023-03-13T07:23:24;13.70;99.90
17918;DHT22;9084;50.956;3.106;2023-03-13T07:25:58;13.70;99.90
17918;DHT22;9084;50.956;3.106;2023-03-13T07:28:28;13.80;99.90
17918;DHT22;9084;50.956;3.106;2023-03-13T07:31:19;13.90;99.90
17918;DHT22;9084;50.956;3.106;2023-03-13T07:33:45;14.00;99.90
17918;DHT22;9084;50.956;3.106;2023-03-13T07:36:12;14.00;99.90
17918;DHT22;9084;50.956;3.106;2023-03-13T07:38:38;14.10;99.90
17918;DHT22;9084;50.956;3.106;2023-03-13T07:41:04;14.10;99.90
17918;DHT22;9084;50.956;3.106;2023-03-13T07:43:32;14.20;99.90
17918;DHT22;9084;50.956;3.106;2023-03-13T07:46:04;14.30;99.90
17918;DHT22;9084;50.956;3.106;2023-03-13T07:48:37;14.30;99.90
17918;DHT22;9084;50.956;3.106;2023-03-13T07:51:05;14.40;99.90
17918;DHT22;9084;50.956;3.106;2023-03-13T07:53:33;14.50;99.90
17918;DHT22;9084;50.956;3.106;2023-03-13T07:56:03;14.50;99.90
17918;DHT22;9084;50.956;3.106;2023-03-13T07:58:36;14.60;99.90
17918;DHT22;9084;50.956;3.106;2023-03-13T08:01:19;14.60;99.90
17918;DHT22;9084;50.956;3.106;2023-03-13T08:03:46;14.70;99.90
17918;DHT22;9084;50.956;3.106;2023-03-13T08:06:20;14.80;99.90
17918;DHT22;9084;50.956;3.106;2023-03-13T08:08:48;14.80;99.90
17918;DHT22;9084;50.956;3.106;2023-03-13T08:11:21;14.80;99.90
17918;DHT22;9084;50.956;3.106;2023-03-13T08:13:50;14.80;99.90
17918;DHT22;9084;50.956;3.106;2023-03-13T08:16:23;14.80;99.90
17918;DHT22;9084;50.956;3.106;2023-03-13T08:18:53;14.80;99.90
17918;DHT22;9084;50.956;3.106;2023-03-13T08:21:24;14.80;99.90
17918;DHT22;9084;50.956;3.106;2023-03-13T08:23:58;14.80;99.90
17918;DHT22;9084;50.956;3.106;2023-03-13T08:26:29;14.90;99.90
17918;DHT22;9084;50.956;3.106;2023-03-13T08:28:57;14.80;99.90
17918;DHT22;9084;50.956;3.106;2023-03-13T08:31:31;14.80;99.90
17918;DHT22;9084;50.956;3.106;2023-03-13T08:33:57;14.80;99.90
17918;DHT22;9084;50.956;3.106;2023-03-13T08:36:29;14.80;99.90
17918;DHT22;9084;50.956;3.106;2023-03-13T08:38:59;14.80;99.90
17918;DHT22;9084;50.956;3.106;2023-03-13T08:41:31;14.90;99.90
17918;DHT22;9084;50.956;3.106;2023-03-13T08:43:58;15.00;99.90
17918;DHT22;9084;50.956;3.106;2023-03-13T08:46:24;15.10;99.90
17918;DHT22;9084;50.956;3.106;2023-03-13T08:48:53;15.10;99.90
17918;DHT22;9084;50.956;3.106;2023-03-13T08:51:21;15.20;99.90
17918;DHT22;9084;50.956;3.106;2023-03-13T08:53:48;15.20;99.90
17918;DHT22;9084;50.956;3.106;2023-03-13T08:56:16;15.20;99.90
17918;DHT22;9084;50.956;3.106;2023-03-13T08:58:51;15.20;99.90
17918;DHT22;9084;50.956;3.106;2023-03-13T09:01:19;15.30;99.90
17918;DHT22;9084;50.956;3.106;2023-03-13T09:03:45;15.30;99.90
17918;DHT22;9084;50.956;3.106;2023-03-13T09:06:16;15.30;99.90
17918;DHT22;9084;50.956;3.106;2023-03-13T09:08:44;15.40;99.90
17918;DHT22;9084;50.956;3.106;2023-03-13T09:11:16;15.40;99.90
17918;DHT22;9084;50.956;3.106;2023-03-13T09:13:46;15.40;99.90
17918;DHT22;9084;50.956;3.106;2023-03-13T09:16:19;15.40;99.90
17918;DHT22;9084;50.956;3.106;2023-03-13T09:18:47;15.40;99.90
17918;DHT22;9084;50.956;3.106;2023-03-13T09:21:18;15.40;99.90
17918;DHT22;9084;50.956;3.106;2023-03-13T09:23:44;15.50;99.90
17918;DHT22;9084;50.956;3.106;2023-03-13T09:26:11;15.60;99.90
17918;DHT22;9084;50.956;3.106;2023-03-13T09:28:39;15.60;99.90
17918;DHT22;9084;50.956;3.106;2023-03-13T09:31:08;15.70;99.90
17918;DHT22;9084;50.956;3.106;2023-03-13T09:33:34;15.70;99.90
17918;DHT22;9084;50.956;3.106;2023-03-13T09:36:00;15.60;99.90
17918;DHT22;9084;50.956;3.106;2023-03-13T09:38:26;15.70;99.90
17918;DHT22;9084;50.956;3.106;2023-03-13T09:40:54;15.80;99.90
17918;DHT22;9084;50.956;3.106;2023-03-13T09:45:47;15.90;99.90
17918;DHT22;9084;50.956;3.106;2023-03-13T09:48:39;16.00;99.90
17918;DHT22;9084;50.956;3.106;2023-03-13T09:51:20;16.00;99.90
17918;DHT22;9084;50.956;3.106;2023-03-13T09:56:45;16.00;95.10
17918;DHT22;9084;50.956;3.106;2023-03-13T09:59:49;16.00;99.90
17918;DHT22;9084;50.956;3.106;2023-03-13T10:05:04;16.20;91.00
17918;DHT22;9084;50.956;3.106;2023-03-13T10:07:30;16.10;90.10
17918;DHT22;9084;50.956;3.106;2023-03-13T10:09:56;16.10;61.30
17918;DHT22;9084;50.956;3.106;2023-03-13T10:12:27;16.00;50.40
17918;DHT22;9084;50.956;3.106;2023-03-13T10:17:38;16.20;47.20
17918;DHT22;9084;50.956;3.106;2023-03-13T10:22:47;16.30;17.70
17918;DHT22;9084;50.956;3.106;2023-03-13T10:25:36;16.30;1.00
17918;DHT22;9084;50.956;3.106;2023-03-13T10:28:13;16.30;1.00
17918;DHT22;9084;50.956;3.106;2023-03-13T10:30:45;16.40;1.00
17918;DHT22;9084;50.956;3.106;2023-03-13T10:35:41;16.40;1.00
17918;DHT22;9084;50.956;3.106;2023-03-13T10:38:20;16.30;1.00
17918;DHT22;9084;50.956;3.106;2023-03-13T10:41:00;16.20;1.00
17918;DHT22;9084;50.956;3.106;2023-03-13T10:43:27;16.00;1.00
17918;DHT22;9084;50.956;3.106;2023-03-13T10:45:59;15.80;1.00
17918;DHT22;9084;50.956;3.106;2023-03-13T10:48:29;15.50;1.00
17918;DHT22;9084;50.956;3.106;2023-03-13T10:51:00;15.40;4.40
17918;DHT22;9084;50.956;3.106;2023-03-13T10:55:59;15.40;18.10
17918;DHT22;9084;50.956;3.106;2023-03-13T11:03:48;15.90;24.60
17918;DHT22;9084;50.956;3.106;2023-03-13T11:06:29;16.30;15.30
17918;DHT22;9084;50.956;3.106;2023-03-13T11:11:47;16.90;1.00
17918;DHT22;9084;50.956;3.106;2023-03-13T11:14:20;17.00;1.00
17918;DHT22;9084;50.956;3.106;2023-03-13T11:16:51;17.10;1.00
17918;DHT22;9084;50.956;3.106;2023-03-13T11:22:48;16.60;1.00
17918;DHT22;9084;50.956;3.106;2023-03-13T11:27:26;16.20;1.00
17918;DHT22;9084;50.956;3.106;2023-03-13T11:33:33;16.00;1.00
17918;DHT22;9084;50.956;3.106;2023-03-13T11:36:17;15.90;1.00
17918;DHT22;9084;50.956;3.106;2023-03-13T11:38:53;15.90;1.00
17918;DHT22;9084;50.956;3.106;2023-03-13T11:57:36;16.00;1.00
17918;DHT22;9084;50.956;3.106;2023-03-13T12:00:21;16.10;1.00
17918;DHT22;9084;50.956;3.106;2023-03-13T12:02:58;16.10;1.00
17918;DHT22;9084;50.956;3.106;2023-03-13T12:05:50;16.10;1.00
17918;DHT22;9084;50.956;3.106;2023-03-13T12:08:42;16.10;1.00
17918;DHT22;9084;50.956;3.106;2023-03-13T12:11:17;16.20;1.00
17918;DHT22;9084;50.956;3.106;2023-03-13T12:14:05;16.20;1.00
17918;DHT22;9084;50.956;3.106;2023-03-13T12:16:53;16.20;1.00
17918;DHT22;9084;50.956;3.106;2023-03-13T12:19:33;16.20;1.00
17918;DHT22;9084;50.956;3.106;2023-03-13T12:22:11;16.10;1.00
17918;DHT22;9084;50.956;3.106;2023-03-13T12:24:56;16.20;1.00
17918;DHT22;9084;50.956;3.106;2023-03-13T12:27:34;16.20;1.00
17918;DHT22;9084;50.956;3.106;2023-03-13T12:35:29;16.00;1.00
17918;DHT22;9084;50.956;3.106;2023-03-13T12:43:11;16.00;1.00
17918;DHT22;9084;50.956;3.106;2023-03-13T12:48:51;16.10;1.00
17918;DHT22;9084;50.956;3.106;2023-03-13T12:59:19;16.40;1.00
17918;DHT22;9084;50.956;3.106;2023-03-13T13:01:49;16.40;1.00
17918;DHT22;9084;50.956;3.106;2023-03-13T13:04:31;16.40;1.00
17918;DHT22;9084;50.956;3.106;2023-03-13T13:07:30;16.40;1.00
17918;DHT22;9084;50.956;3.106;2023-03-13T13:12:27;16.20;1.00
17918;DHT22;9084;50.956;3.106;2023-03-13T13:17:39;16.00;1.00
17918;DHT22;9084;50.956;3.106;2023-03-13T13:20:29;16.00;1.00
17918;DHT22;9084;50.956;3.106;2023-03-13T13:22:58;16.00;1.00
17918;DHT22;9084;50.956;3.106;2023-03-13T13:25:42;15.90;1.00
17918;DHT22;9084;50.956;3.106;2023-03-13T13:28:23;15.90;1.00
17918;DHT22;9084;50.956;3.106;2023-03-13T13:30:55;15.90;1.00
17918;DHT22;9084;50.956;3.106;2023-03-13T13:38:44;16.00;1.00
17918;DHT22;9084;50.956;3.106;2023-03-13T13:43:45;16.20;1.00
17918;DHT22;9084;50.956;3.106;2023-03-13T13:46:27;16.20;1.00
17918;DHT22;9084;50.956;3.106;2023-03-13T13:51:33;16.00;1.00
17918;DHT22;9084;50.956;3.106;2023-03-13T13:56:47;15.90;1.00
17918;DHT22;9084;50.956;3.106;2023-03-13T14:02:04;15.90;1.00
17918;DHT22;9084;50.956;3.106;2023-03-13T14:07:54;15.80;1.00
17918;DHT22;9084;50.956;3.106;2023-03-13T14:10:29;15.90;1.00
17918;DHT22;9084;50.956;3.106;2023-03-13T14:12:59;15.90;1.00
17918;DHT22;9084;50.956;3.106;2023-03-13T14:15:26;16.00;1.00
17918;DHT22;9084;50.956;3.106;2023-03-13T14:18:21;15.90;1.00
17918;DHT22;9084;50.956;3.106;2023-03-13T14:23:44;15.90;1.00
17918;DHT22;9084;50.956;3.106;2023-03-13T14:28:59;15.80;1.00
17918;DHT22;9084;50.956;3.106;2023-03-13T14:34:00;15.90;1.00
17918;DHT22;9084;50.956;3.106;2023-03-13T14:36:26;15.90;1.00
17918;DHT22;9084;50.956;3.106;2023-03-13T14:41:30;15.90;1.00
17918;DHT22;9084;50.956;3.106;2023-03-13T14:44:23;15.90;1.00
17918;DHT22;9084;50.956;3.106;2023-03-13T14:47:03;15.90;1.00
17918;DHT22;9084;50.956;3.106;2023-03-13T14:49:32;16.00;1.00
17918;DHT22;9084;50.956;3.106;2023-03-13T14:52:01;16.00;1.00
17918;DHT22;9084;50.956;3.106;2023-03-13T14:54:30;16.00;1.00
17918;DHT22;9084;50.956;3.106;2023-03-13T14:59:36;16.10;1.00
17918;DHT22;9084;50.956;3.106;2023-03-13T15:02:20;16.20;1.00
17918;DHT22;9084;50.956;3.106;2023-03-13T15:04:57;16.30;1.00
17918;DHT22;9084;50.956;3.106;2023-03-13T15:07:51;16.30;1.00
17918;DHT22;9084;50.956;3.106;2023-03-13T15:10:32;16.40;1.00
17918;DHT22;9084;50.956;3.106;2023-03-13T15:12:58;16.40;1.00
17918;DHT22;9084;50.956;3.106;2023-03-13T15:15:24;16.40;1.00
17918;DHT22;9084;50.956;3.106;2023-03-13T15:17:52;16.30;1.00
17918;DHT22;9084;50.956;3.106;2023-03-13T15:20:20;16.30;1.00
17918;DHT22;9084;50.956;3.106;2023-03-13T15:22:49;16.30;1.00
17918;DHT22;9084;50.956;3.106;2023-03-13T15:25:18;16.30;1.00
17918;DHT22;9084;50.956;3.106;2023-03-13T15:27:49;16.20;1.00
17918;DHT22;9084;50.956;3.106;2023-03-13T15:30:17;16.10;1.00
17918;DHT22;9084;50.956;3.106;2023-03-13T15:32:45;16.20;1.00
17918;DHT22;9084;50.956;3.106;2023-03-13T15:35:21;16.20;1.00
17918;DHT22;9084;50.956;3.106;2023-03-13T15:37:49;16.20;1.00
17918;DHT22;9084;50.956;3.106;2023-03-13T15:40:16;16.20;1.00
17918;DHT22;9084;50.956;3.106;2023-03-13T15:42:41;16.20;1.00
17918;DHT22;9084;50.956;3.106;2023-03-13T15:45:10;16.10;1.00
17918;DHT22;9084;50.956;3.106;2023-03-13T15:47:36;16.00;1.00
17918;DHT22;9084;50.956;3.106;2023-03-13T15:50:01;16.00;1.00
17918;DHT22;9084;50.956;3.106;2023-03-13T15:52:27;15.90;1.00
17918;DHT22;9084;50.956;3.106;2023-03-13T15:54:56;15.90;1.00
17918;DHT22;9084;50.956;3.106;2023-03-13T15:57:24;15.80;1.00
17918;DHT22;9084;50.956;3.106;2023-03-13T15:59:53;15.80;1.00
17918;DHT22;9084;50.956;3.106;2023-03-13T16:02:21;15.70;1.00
17918;DHT22;9084;50.956;3.106;2023-03-13T16:04:50;15.70;1.00
17918;DHT22;9084;50.956;3.106;2023-03-13T16:07:19;15.70;1.00
17918;DHT22;9084;50.956;3.106;2023-03-13T16:09:45;15.60;1.00
17918;DHT22;9084;50.956;3.106;2023-03-13T16:12:11;15.60;1.00
17918;DHT22;9084;50.956;3.106;2023-03-13T16:14:39;15.50;1.00
17918;DHT22;9084;50.956;3.106;2023-03-13T16:17:17;15.60;1.00
17918;DHT22;9084;50.956;3.106;2023-03-13T16:19:44;15.50;1.00
17918;DHT22;9084;50.956;3.106;2023-03-13T16:22:10;15.50;1.00
17918;DHT22;9084;50.956;3.106;2023-03-13T16:24:37;15.40;1.00
17918;DHT22;9084;50.956;3.106;2023-03-13T16:27:16;15.40;1.00
17918;DHT22;9084;50.956;3.106;2023-03-13T16:29:43;15.30;1.00
17918;DHT22;9084;50.956;3.106;2023-03-13T16:32:16;15.30;1.00
17918;DHT22;9084;50.956;3.106;2023-03-13T16:34:43;15.30;1.00
17918;DHT22;9084;50.956;3.106;2023-03-13T16:37:17;15.30;1.00
17918;DHT22;9084;50.956;3.106;2023-03-13T16:39:44;15.20;1.00
17918;DHT22;9084;50.956;3.106;2023-03-13T16:42:10;15.20;1.00
17918;DHT22;9084;50.956;3.106;2023-03-13T16:44:36;15.20;1.00
17918;DHT22;9084;50.956;3.106;2023-03-13T16:47:24;15.20;1.00
17918;DHT22;9084;50.956;3.106;2023-03-13T16:49:51;15.30;1.00
17918;DHT22;9084;50.956;3.106;2023-03-13T16:52:17;15.40;1.00
17918;DHT22;9084;50.956;3.106;2023-03-13T16:54:45;15.40;1.00
17918;DHT22;9084;50.956;3.106;2023-03-13T16:57:14;15.40;1.00
17918;DHT22;9084;50.956;3.106;2023-03-13T16:59:41;15.40;1.00
17918;DHT22;9084;50.956;3.106;2023-03-13T17:02:16;15.40;1.00
17918;DHT22;9084;50.956;3.106;2023-03-13T17:04:44;15.30;1.00
17918;DHT22;9084;50.956;3.106;2023-03-13T17:07:18;15.20;1.00
17918;DHT22;9084;50.956;3.106;2023-03-13T17:09:45;15.00;1.00
17918;DHT22;9084;50.956;3.106;2023-03-13T17:12:12;14.90;1.00
17918;DHT22;9084;50.956;3.106;2023-03-13T17:14:38;14.70;1.00
17918;DHT22;9084;50.956;3.106;2023-03-13T17:17:05;14.60;1.00
17918;DHT22;9084;50.956;3.106;2023-03-13T17:19:32;14.50;1.00
17918;DHT22;9084;50.956;3.106;2023-03-13T17:21:58;14.40;2.10
17918;DHT22;9084;50.956;3.106;2023-03-13T17:24:25;14.30;8.00
17918;DHT22;9084;50.956;3.106;2023-03-13T17:26:51;14.20;16.20
17918;DHT22;9084;50.956;3.106;2023-03-13T17:29:18;14.10;20.80
17918;DHT22;9084;50.956;3.106;2023-03-13T17:31:45;13.90;26.10
17918;DHT22;9084;50.956;3.106;2023-03-13T17:34:11;13.80;33.20
17918;DHT22;9084;50.956;3.106;2023-03-13T17:36:42;13.70;43.40
17918;DHT22;9084;50.956;3.106;2023-03-13T17:39:12;13.70;43.60
17918;DHT22;9084;50.956;3.106;2023-03-13T17:41:39;13.60;32.10
17918;DHT22;9084;50.956;3.106;2023-03-13T17:44:06;13.60;28.20
17918;DHT22;9084;50.956;3.106;2023-03-13T17:46:42;13.60;25.70
17918;DHT22;9084;50.956;3.106;2023-03-13T17:49:14;13.50;18.80
17918;DHT22;9084;50.956;3.106;2023-03-13T17:51:41;13.50;14.20
17918;DHT22;9084;50.956;3.106;2023-03-13T17:54:09;13.40;10.60
17918;DHT22;9084;50.956;3.106;2023-03-13T17:56:38;13.40;9.50
17918;DHT22;9084;50.956;3.106;2023-03-13T17:59:13;13.30;6.30
17918;DHT22;9084;50.956;3.106;2023-03-13T18:01:40;13.30;7.90
17918;DHT22;9084;50.956;3.106;2023-03-13T18:04:07;13.30;7.00
17918;DHT22;9084;50.956;3.106;2023-03-13T18:09:17;13.20;9.90
17918;DHT22;9084;50.956;3.106;2023-03-13T18:11:44;13.10;13.20
17918;DHT22;9084;50.956;3.106;2023-03-13T18:14:10;13.00;15.60
17918;DHT22;9084;50.956;3.106;2023-03-13T18:16:39;12.90;18.60
17918;DHT22;9084;50.956;3.106;2023-03-13T18:19:13;12.80;22.50
17918;DHT22;9084;50.956;3.106;2023-03-13T18:21:41;12.80;23.80
17918;DHT22;9084;50.956;3.106;2023-03-13T18:24:07;12.70;27.20